Time;durP1;ratioP1;P1;durP2;ratioP2;P2;SDS_P1;SDS_P2;PMS_P1;PMS_P2;Temp;Humidity;BMP_temperature;BMP_pressure;BME280_temperature;BME280_humidity;BME280_pressure;Samples;Min_cycle;Max_cycle;Signal;HPM_P1;HPM_P2
2022/08/13 00:01:18;;;;;;;12.10;4.60;;;;;;;23.28;51.30;99195.10;25039;1317;3055194;-59
2022/08/13 00:03:49;;;;;;;9.60;4.60;;;;;;;23.30;51.22;99194.26;25040;1318;3026396;-57
2022/08/13 00:06:35;;;;;;;11.60;4.90;;;;;;;23.29;51.12;99190.61;25090;1318;3026703;-58
2022/08/13 00:09:07;;;;;;;8.50;4.60;;;;;;;23.26;51.17;99187.58;25042;1318;3055465;-59
2022/08/13 00:14:45;;;;;;;12.00;4.60;;;;;;;23.20;51.06;99178.08;24876;1323;3071760;-59
2022/08/13 00:17:14;;;;;;;7.20;4.20;;;;;;;23.18;51.30;99175.95;25049;1317;3027928;-61
2022/08/13 00:19:45;;;;;;;11.50;4.70;;;;;;;23.18;51.13;99168.65;25014;1318;3026543;-59
2022/08/13 00:22:19;;;;;;;10.60;4.50;;;;;;;23.16;51.20;99164.40;25071;1316;3070549;-56
2022/08/13 00:24:48;;;;;;;;;;;;;;;23.14;51.20;99163.80;25026;1318;3052664;-60
2022/08/13 00:27:17;;;;;;;9.80;4.70;;;;;;;23.11;51.19;99161.52;25060;1317;3026580;-59
2022/08/13 00:29:46;;;;;;;11.60;4.20;;;;;;;23.13;51.12;99161.20;25040;1318;3071052;-56
2022/08/13 00:32:18;;;;;;;10.90;4.90;;;;;;;23.14;51.25;99154.11;25050;1318;3026405;-59
2022/08/13 00:34:49;;;;;;;9.80;4.00;;;;;;;23.18;51.08;99154.26;25013;1318;3051510;-59
2022/08/13 00:37:18;;;;;;;9.40;4.80;;;;;;;23.20;50.96;99147.36;25038;1318;3027214;-57
2022/08/13 00:39:47;;;;;;;9.40;4.50;;;;;;;23.22;50.76;99142.69;25040;1318;3026668;-56
2022/08/13 00:42:25;;;;;;;13.40;4.90;;;;;;;23.24;50.71;99138.48;25061;1318;3054235;-56
2022/08/13 00:44:54;;;;;;;7.60;3.90;;;;;;;23.24;50.81;99135.22;25050;1316;3072385;-58
2022/08/13 00:50:14;;;;;;;11.20;4.30;;;;;;;23.26;50.52;99149.88;25121;1316;3052971;-57
2022/08/13 00:52:44;;;;;;;7.00;4.40;;;;;;;23.26;50.51;99151.05;25014;1318;3026799;-58
2022/08/13 00:55:19;;;;;;;9.90;4.80;;;;;;;23.27;50.54;99149.06;25075;1318;3026875;-61
2022/08/13 00:57:49;;;;;;;11.40;4.40;;;;;;;23.27;50.42;99149.02;25017;1318;3051179;-55
2022/08/13 01:00:20;;;;;;;10.50;4.80;;;;;;;23.26;50.59;99156.61;25035;1318;3029157;-58
2022/08/13 01:02:50;;;;;;;10.50;4.90;;;;;;;23.23;50.43;99166.70;25085;1318;3026233;-55
2022/08/13 01:05:24;;;;;;;10.40;4.70;;;;;;;23.17;50.47;99171.98;25097;1318;3026585;-59
2022/08/13 01:07:53;;;;;;;;;;;;;;;23.16;50.49;99171.05;25077;1316;3052325;-58
2022/08/13 01:10:23;;;;;;;9.20;4.30;;;;;;;23.11;50.62;99166.95;25064;1316;3026734;-60
2022/08/13 01:12:52;;;;;;;9.40;4.60;;;;;;;23.12;50.97;99166.84;25054;1316;3027070;-58
2022/08/13 01:15:24;;;;;;;9.20;4.90;;;;;;;23.10;51.00;99164.20;24959;1317;3054559;-57
2022/08/13 01:17:53;;;;;;;9.50;5.20;;;;;;;23.10;50.85;99164.23;25059;1318;3027399;-61
2022/08/13 01:20:23;;;;;;;10.80;5.30;;;;;;;23.08;51.16;99162.85;25081;1318;3054703;-61
2022/08/13 01:22:53;;;;;;;10.60;5.40;;;;;;;23.06;51.21;99159.52;24893;1317;3026366;-59
2022/08/13 01:25:24;;;;;;;9.40;4.80;;;;;;;23.02;51.52;99158.80;25052;1315;3026849;-55
2022/08/13 01:27:53;;;;;;;9.00;5.30;;;;;;;23.01;51.58;99152.09;25062;1318;3026895;-57
2022/08/13 01:30:23;;;;;;;13.00;5.20;;;;;;;22.98;51.81;99151.55;25060;1317;3027104;-60
2022/08/13 01:32:54;;;;;;;10.30;5.40;;;;;;;22.95;51.92;99151.14;25113;1318;3028194;-59
2022/08/13 01:35:25;;;;;;;9.30;4.70;;;;;;;22.95;52.02;99151.34;24997;1314;3029976;-57
2022/08/13 01:37:55;;;;;;;11.30;5.00;;;;;;;22.93;52.09;99149.09;25025;1318;3026644;-57
2022/08/13 01:40:24;;;;;;;9.00;5.00;;;;;;;22.87;52.44;99146.85;25013;1318;3026950;-56
2022/08/13 01:42:54;;;;;;;11.10;5.20;;;;;;;22.86;52.30;99150.79;25011;1314;3026571;-59
2022/08/13 01:45:23;;;;;;;10.50;4.70;;;;;;;22.87;52.49;99147.67;24944;1317;3026533;-55
2022/08/13 01:50:41;;;;;;;10.10;5.50;;;;;;;22.85;52.75;99144.23;25061;1315;3054901;-57
2022/08/13 01:53:14;;;;;;;9.00;5.10;;;;;;;22.81;52.79;99142.55;25051;1318;3026251;-61
2022/08/13 01:55:48;;;;;;;12.60;5.50;;;;;;;22.81;52.97;99142.30;25096;1315;3026702;-57
2022/08/13 01:58:22;;;;;;;16.30;5.90;;;;;;;22.81;53.05;99143.86;25024;1314;3052259;-58
2022/08/13 02:00:59;;;;;;;11.30;5.20;;;;;;;22.80;53.04;99143.46;25031;1315;3051765;-57
2022/08/13 02:03:30;;;;;;;8.40;4.90;;;;;;;22.78;53.22;99144.75;25058;1314;3071655;-59
2022/08/13 02:06:00;;;;;;;10.70;6.00;;;;;;;22.75;53.26;99144.85;25090;1315;3026656;-57
2022/08/13 02:08:29;;;;;;;12.20;5.40;;;;;;;22.76;53.36;99145.68;25057;1318;3026411;-57
2022/08/13 02:10:58;;;;;;;10.90;5.50;;;;;;;22.76;53.26;99139.92;25017;1314;3026403;-57
2022/08/13 02:13:29;;;;;;;12.60;5.50;;;;;;;22.77;53.13;99139.11;25023;1317;3049091;-56
2022/08/13 02:15:59;;;;;;;13.50;5.80;;;;;;;22.78;53.10;99135.25;25085;1318;3026650;-56
2022/08/13 02:18:28;;;;;;;12.90;5.50;;;;;;;22.75;53.30;99133.43;25031;1318;3026378;-56
2022/08/13 02:20:58;;;;;;;13.20;5.80;;;;;;;22.76;53.28;99132.32;25081;1317;3051105;-54
2022/08/13 02:23:30;;;;;;;12.10;5.00;;;;;;;22.77;53.08;99124.81;25102;1315;3026464;-57
2022/08/13 02:26:00;;;;;;;14.90;5.50;;;;;;;22.79;53.07;99126.24;25030;1315;3027272;-58
2022/08/13 02:28:30;;;;;;;14.30;6.20;;;;;;;22.81;53.09;99128.00;25025;1318;3026649;-58
2022/08/13 02:30:59;;;;;;;11.70;5.20;;;;;;;22.80;52.95;99130.75;24951;1317;3026480;-58
2022/08/13 02:33:28;;;;;;;10.20;5.30;;;;;;;22.82;52.84;99129.67;25032;1316;3026515;-59
2022/08/13 02:35:58;;;;;;;14.30;5.70;;;;;;;22.84;52.85;99128.58;25005;1318;3057897;-59
2022/08/13 02:38:27;;;;;;;10.40;5.30;;;;;;;22.86;52.74;99128.63;25049;1317;3026430;-56
2022/08/13 02:43:51;;;;;;;9.00;4.90;;;;;;;22.91;52.53;99123.92;25014;1318;3059499;-59
2022/08/13 02:46:21;;;;;;;11.70;5.70;;;;;;;22.93;52.81;99121.23;24997;1318;3026072;-59
2022/08/13 02:48:52;;;;;;;16.30;6.50;;;;;;;22.95;52.60;99121.11;25082;1318;3052665;-56
2022/08/13 02:51:23;;;;;;;9.60;5.30;;;;;;;22.96;52.58;99120.42;25073;1318;3026438;-58
2022/08/13 02:53:52;;;;;;;12.60;6.00;;;;;;;23.00;52.31;99130.82;25002;1317;3026877;-58
2022/08/13 02:56:22;;;;;;;13.30;5.50;;;;;;;23.03;52.12;99132.32;25058;1318;3026400;-60
2022/08/13 02:58:51;;;;;;;12.10;5.40;;;;;;;23.08;51.71;99137.37;25084;1316;3026275;-59
2022/08/13 03:01:23;;;;;;;14.20;5.90;;;;;;;23.12;51.75;99131.84;25044;1316;3027334;-57
2022/08/13 03:03:53;;;;;;;13.00;5.60;;;;;;;23.13;51.74;99132.98;25017;1318;3026433;-60
2022/08/13 03:06:22;;;;;;;13.70;5.60;;;;;;;23.15;51.56;99132.52;25018;1318;3026242;-58
2022/08/13 03:08:52;;;;;;;12.10;6.00;;;;;;;23.16;51.56;99129.45;25012;1318;3027325;-59
2022/08/13 03:11:22;;;;;;;13.90;6.50;;;;;;;23.14;51.77;99126.94;25011;1318;3026360;-59
2022/08/13 03:14:05;;;;;;;13.40;5.90;;;;;;;23.14;51.95;99126.77;25025;1318;3026596;-59
2022/08/13 03:16:35;;;;;;;10.40;5.60;;;;;;;23.11;52.13;99125.14;25087;1318;3052520;-60
2022/08/13 03:19:04;;;;;;;9.80;5.90;;;;;;;23.14;52.36;99124.43;25061;1318;3026533;-63
2022/08/13 03:21:35;;;;;;;11.80;6.10;;;;;;;23.15;52.58;99125.84;24997;1318;3051500;-58
2022/08/13 03:24:06;;;;;;;17.70;7.10;;;;;;;23.16;52.41;99128.33;25124;1318;3026757;-57
2022/08/13 03:26:35;;;;;;;13.60;6.90;;;;;;;23.19;52.33;99126.77;25052;1317;3027960;-56
2022/08/13 03:29:08;;;;;;;13.30;6.60;;;;;;;23.22;52.23;99130.89;25027;1318;3026471;-60
2022/08/13 03:31:37;;;;;;;15.70;6.60;;;;;;;23.26;52.23;99128.04;25051;1318;3029393;-58
2022/08/13 03:34:07;;;;;;;18.70;7.10;;;;;;;23.31;52.21;99127.61;25035;1318;3026924;-63
2022/08/13 03:36:37;;;;;;;14.10;7.40;;;;;;;23.33;52.22;99127.35;25053;1318;3026719;-59
2022/08/13 03:39:07;;;;;;;17.30;6.30;;;;;;;23.35;52.19;99127.70;25069;1318;3027512;-56
2022/08/13 03:41:37;;;;;;;13.30;6.70;;;;;;;23.38;52.32;99128.13;25060;1318;3026171;-60
2022/08/13 03:44:06;;;;;;;13.30;6.60;;;;;;;23.39;52.29;99132.89;25057;1315;3026227;-60
2022/08/13 03:46:35;;;;;;;14.20;7.00;;;;;;;23.42;52.30;99130.81;25013;1318;3028025;-61
2022/08/13 03:49:04;;;;;;;15.90;7.90;;;;;;;23.42;52.45;99133.42;25087;1318;3051299;-59
2022/08/13 03:51:34;;;;;;;12.30;7.10;;;;;;;23.40;52.61;99129.98;25026;1317;3026721;-57
2022/08/13 03:54:06;;;;;;;16.70;7.60;;;;;;;23.42;52.48;99125.83;25070;1318;3057382;-58
2022/08/13 03:56:36;;;;;;;14.20;7.20;;;;;;;23.39;52.88;99127.94;25025;1316;3026625;-55
2022/08/13 03:59:05;;;;;;;14.70;7.30;;;;;;;23.39;53.06;99122.27;25092;1318;3028454;-62
2022/08/13 04:01:34;;;;;;;17.70;8.30;;;;;;;23.36;53.10;99121.83;25023;1318;3026651;-58
2022/08/13 04:04:05;;;;;;;16.00;8.10;;;;;;;23.32;53.60;99121.18;25048;1318;3049194;-62
2022/08/13 04:06:34;;;;;;;17.70;7.30;;;;;;;23.32;53.69;99125.18;25068;1316;3026319;-58
2022/08/13 04:09:03;;;;;;;15.20;8.00;;;;;;;23.32;53.92;99120.33;25059;1318;3028458;-55
2022/08/13 04:11:33;;;;;;;20.40;8.20;;;;;;;23.32;53.89;99121.77;25068;1317;3049624;-60
2022/08/13 04:14:03;;;;;;;14.00;7.20;;;;;;;23.36;54.02;99120.27;25037;1318;3026579;-60
2022/08/13 04:16:32;;;;;;;17.30;8.10;;;;;;;23.41;53.88;99120.34;25009;1318;3058734;-61
2022/08/13 04:19:01;;;;;;;14.00;7.70;;;;;;;23.46;53.85;99116.70;25061;1318;3026875;-61
2022/08/13 04:21:31;;;;;;;14.90;8.10;;;;;;;23.49;53.83;99117.77;25003;1318;3054755;-57
2022/08/13 04:24:04;;;;;;;16.10;8.10;;;;;;;23.52;53.97;99112.61;25043;1318;3026714;-60
2022/08/13 04:26:33;;;;;;;14.90;7.80;;;;;;;23.54;54.00;99116.13;25099;1318;3027130;-60
2022/08/13 04:29:04;;;;;;;17.70;8.10;;;;;;;23.56;54.00;99117.45;25025;1318;3026755;-60
2022/08/13 04:31:33;;;;;;;16.20;7.40;;;;;;;23.58;54.28;99117.92;25083;1316;3056162;-61
2022/08/13 04:34:02;;;;;;;15.80;8.00;;;;;;;23.63;54.13;99113.27;25020;1318;3026627;-62
2022/08/13 04:36:31;;;;;;;14.90;8.20;;;;;;;23.66;54.22;99114.84;25066;1318;3054099;-63
2022/08/13 04:39:00;;;;;;;14.80;7.80;;;;;;;23.71;54.11;99114.48;25010;1318;3026610;-61
2022/08/13 04:41:29;;;;;;;15.90;8.50;;;;;;;23.76;53.87;99114.12;25088;1318;3055536;-61
2022/08/13 04:43:58;;;;;;;13.20;7.60;;;;;;;23.80;54.01;99110.28;25006;1318;3026620;-58
2022/08/13 04:46:27;;;;;;;14.80;7.30;;;;;;;23.85;54.03;99105.96;25061;1318;3050452;-59
2022/08/13 04:48:56;;;;;;;16.90;8.20;;;;;;;23.88;54.12;99107.17;25039;1318;3028910;-59
2022/08/13 04:51:25;;;;;;;19.10;8.10;;;;;;;23.94;54.04;99105.65;25065;1316;3070768;-59
2022/08/13 04:53:54;;;;;;;15.60;8.50;;;;;;;24.01;54.03;99105.34;25041;1318;3027041;-60
2022/08/13 04:56:23;;;;;;;15.30;8.40;;;;;;;24.04;54.22;99110.09;25015;1316;3026396;-59
2022/08/13 04:58:52;;;;;;;16.60;8.70;;;;;;;24.05;54.38;99105.49;25030;1318;3070392;-59
2022/08/13 05:01:21;;;;;;;13.90;7.80;;;;;;;24.11;54.24;99107.11;25030;1318;3026490;-60
2022/08/13 05:03:51;;;;;;;15.60;9.20;;;;;;;24.18;54.04;99100.87;24359;1318;4413828;-59
2022/08/13 05:06:20;;;;;;;15.20;9.00;;;;;;;24.19;54.39;99100.38;25021;1317;3026022;-58
2022/08/13 05:08:49;;;;;;;16.30;8.90;;;;;;;24.22;54.44;99100.08;25042;1316;3054851;-59
2022/08/13 05:11:19;;;;;;;16.00;9.00;;;;;;;24.26;54.42;99101.52;25078;1318;3026740;-59
2022/08/13 05:13:48;;;;;;;14.10;8.20;;;;;;;24.30;54.40;99101.19;25006;1318;3026465;-63
2022/08/13 05:16:18;;;;;;;14.00;8.20;;;;;;;24.36;54.31;99096.72;25020;1318;3026913;-60
2022/08/13 05:18:53;;;;;;;17.20;9.50;;;;;;;24.40;54.50;99103.83;25084;1318;3028855;-58
2022/08/13 05:21:23;;;;;;;19.30;9.50;;;;;;;24.43;54.49;99096.90;24998;1318;3071041;-57
2022/08/13 05:23:53;;;;;;;17.30;9.50;;;;;;;24.43;54.85;99095.75;25021;1317;3026409;-60
2022/08/13 05:26:23;;;;;;;19.80;9.60;;;;;;;24.49;54.83;99092.16;25055;1318;3027322;-62
2022/08/13 05:28:52;;;;;;;19.70;9.40;;;;;;;24.59;54.45;99090.43;25005;1317;3026674;-58
2022/08/13 05:31:21;;;;;;;15.50;9.90;;;;;;;24.63;54.56;99087.61;25107;1318;3026097;-59
2022/08/13 05:33:50;;;;;;;14.20;9.50;;;;;;;24.73;54.31;99090.71;25027;1318;3054167;-59
2022/08/13 05:36:19;;;;;;;21.20;10.10;;;;;;;24.75;54.37;99091.27;25057;1318;3026705;-58
2022/08/13 05:38:49;;;;;;;13.70;9.30;;;;;;;24.82;54.37;99089.23;25046;1318;3047264;-59
2022/08/13 05:41:18;;;;;;;24.20;11.70;;;;;;;24.90;54.09;99087.98;25023;1318;3028754;-58
2022/08/13 05:43:50;;;;;;;15.20;9.90;;;;;;;24.89;54.47;99082.03;25043;1318;3069763;-60
2022/08/13 05:46:20;;;;;;;22.10;9.70;;;;;;;24.97;53.95;99079.73;25043;1318;3027572;-59
2022/08/13 05:48:58;;;;;;;12.90;9.40;;;;;;;25.03;53.79;99083.83;25078;1318;3026172;-60
2022/08/13 05:51:28;;;;;;;21.10;10.20;;;;;;;25.08;53.55;99079.40;25071;1318;3053068;-60
2022/08/13 05:54:01;;;;;;;17.00;9.80;;;;;;;25.15;53.54;99078.77;25024;1318;3026104;-60
2022/08/13 05:56:37;;;;;;;17.50;10.20;;;;;;;25.22;53.50;99081.20;25004;1318;3026707;-58
2022/08/13 06:03:22;;;;;;;14.10;9.50;;;;;;;25.28;53.14;99082.27;25083;1315;3055988;-58
2022/08/13 06:04:44;;;;;;;14.90;9.30;;;;;;;25.47;53.23;99087.08;25042;1318;3071383;-58
2022/08/13 06:07:18;;;;;;;22.30;10.90;;;;;;;25.52;53.52;99085.38;25010;1314;3026917;-58
2022/08/13 06:09:48;;;;;;;17.10;10.00;;;;;;;25.54;53.71;99085.59;25049;1318;3054426;-58
2022/08/13 06:12:17;;;;;;;16.10;10.20;;;;;;;25.57;53.61;99084.40;25037;1315;3026526;-61
2022/08/13 06:14:46;;;;;;;17.40;10.50;;;;;;;25.66;53.34;99084.77;25029;1315;3055250;-60
2022/08/13 06:17:16;;;;;;;17.80;11.00;;;;;;;25.73;53.11;99086.13;25033;1318;3026566;-61
2022/08/13 06:19:46;;;;;;;16.50;11.00;;;;;;;25.79;53.02;99080.85;24938;1317;3049123;-58
2022/08/13 06:22:15;;;;;;;18.10;9.70;;;;;;;25.90;52.42;99082.00;25069;1315;3026569;-62
2022/08/13 06:24:45;;;;;;;19.80;10.70;;;;;;;25.95;52.51;99083.63;24978;1317;3058464;-60
2022/08/13 06:27:14;;;;;;;20.10;11.10;;;;;;;26.04;52.34;99088.94;25058;1318;3030120;-60
2022/08/13 06:29:45;;;;;;;17.50;9.50;;;;;;;26.10;52.18;99087.80;25019;1314;3026716;-58
2022/08/13 06:32:14;;;;;;;18.80;10.80;;;;;;;26.19;52.06;99085.58;25028;1315;3056158;-57
2022/08/13 06:34:43;;;;;;;17.60;9.90;;;;;;;26.27;51.55;99084.44;25071;1316;3026560;-60
2022/08/13 06:37:12;;;;;;;20.80;11.70;;;;;;;26.33;51.01;99083.73;25047;1317;3054814;-60
2022/08/13 06:39:41;;;;;;;18.20;11.60;;;;;;;26.36;51.35;99086.89;25035;1317;3026502;-60
2022/08/13 06:42:10;;;;;;;17.50;10.50;;;;;;;26.45;50.51;99086.23;25026;1316;3027052;-60
2022/08/13 06:44:44;;;;;;;19.00;11.80;;;;;;;26.49;50.55;99086.78;25045;1314;3051668;-58
2022/08/13 06:47:13;;;;;;;23.10;11.50;;;;;;;26.56;50.24;99089.23;25071;1315;3027026;-61
2022/08/13 06:49:42;;;;;;;19.50;11.30;;;;;;;26.57;49.97;99087.48;25012;1314;3026693;-61
2022/08/13 06:52:11;;;;;;;26.90;11.90;;;;;;;26.65;49.91;99094.37;25053;1315;3054806;-60
2022/08/13 06:54:40;;;;;;;16.40;10.40;;;;;;;26.75;49.96;99096.23;25082;1314;3026382;-60
2022/08/13 06:57:09;;;;;;;16.90;10.00;;;;;;;26.84;49.93;99097.18;25060;1315;3054471;-62
2022/08/13 06:59:39;;;;;;;20.70;11.00;;;;;;;26.91;49.82;99098.62;25066;1314;3026385;-58
2022/08/13 07:02:08;;;;;;;16.70;9.60;;;;;;;26.94;49.74;99101.61;25018;1318;3051259;-59
2022/08/13 07:04:37;;;;;;;17.80;10.40;;;;;;;27.01;49.75;99102.60;25015;1315;3026843;-57
2022/08/13 07:07:07;;;;;;;23.80;10.80;;;;;;;27.11;49.32;99105.95;25063;1314;3026710;-60
2022/08/13 07:09:36;;;;;;;18.10;10.60;;;;;;;27.17;48.99;99105.10;25049;1316;3026480;-59
2022/08/13 07:12:07;;;;;;;18.90;10.40;;;;;;;27.30;48.75;99104.20;25051;1316;3054209;-61
2022/08/13 07:14:36;;;;;;;16.20;9.90;;;;;;;27.39;48.55;99104.88;25042;1318;3026990;-56
2022/08/13 07:17:05;;;;;;;15.90;10.10;;;;;;;27.49;48.25;99103.52;25115;1318;3026454;-60
2022/08/13 07:19:34;;;;;;;15.60;9.90;;;;;;;27.57;47.50;99104.37;25100;1317;3054208;-61
2022/08/13 07:22:04;;;;;;;15.60;9.70;;;;;;;27.68;46.89;99108.39;25028;1316;3026261;-56
2022/08/13 07:24:34;;;;;;;16.20;10.40;;;;;;;27.72;45.85;99117.02;25051;1318;3048430;-60
2022/08/13 07:27:07;;;;;;;20.70;9.70;;;;;;;27.76;45.30;99113.48;25047;1318;3026572;-57
2022/08/13 07:29:37;;;;;;;16.60;9.60;;;;;;;27.85;45.45;99109.58;25087;1317;3069762;-60
2022/08/13 07:32:07;;;;;;;16.30;9.80;;;;;;;27.95;45.06;99110.10;25053;1317;3026465;-57
2022/08/13 07:34:37;;;;;;;15.80;9.50;;;;;;;28.03;45.23;99107.19;25068;1318;3026596;-56
2022/08/13 07:37:06;;;;;;;17.20;9.80;;;;;;;28.13;45.34;99109.62;24979;1317;3027250;-56
2022/08/13 07:39:35;;;;;;;21.70;10.40;;;;;;;28.23;44.71;99105.41;25065;1316;3051259;-59
2022/08/13 07:42:05;;;;;;;14.90;8.40;;;;;;;28.34;44.19;99102.84;25046;1316;3026703;-60
2022/08/13 07:44:34;;;;;;;19.40;9.80;;;;;;;28.42;43.80;99100.63;25037;1318;3071613;-59
2022/08/13 07:47:04;;;;;;;18.70;9.20;;;;;;;28.47;43.53;99099.59;25076;1316;3026511;-58
2022/08/13 07:49:34;;;;;;;18.50;9.00;;;;;;;28.58;43.84;99093.64;25080;1316;3051233;-63
2022/08/13 07:52:05;;;;;;;15.50;8.60;;;;;;;28.64;43.37;99091.27;25028;1318;3026242;-55
2022/08/13 07:54:34;;;;;;;18.40;9.10;;;;;;;28.72;43.51;99092.12;25037;1318;3026209;-56
2022/08/13 07:57:04;;;;;;;19.80;8.90;;;;;;;28.79;43.51;99087.86;25068;1316;3026509;-59
2022/08/13 07:59:33;;;;;;;17.20;9.30;;;;;;;28.89;43.34;99089.20;25066;1318;3070938;-60
2022/08/13 08:02:04;;;;;;;21.20;9.30;;;;;;;28.99;43.17;99087.64;25020;1316;3026770;-59
2022/08/13 08:04:35;;;;;;;16.50;8.70;;;;;;;29.02;42.59;99086.36;25033;1318;3053330;-61
2022/08/13 08:07:04;;;;;;;20.00;9.70;;;;;;;29.06;42.87;99086.36;25007;1318;3027079;-61
2022/08/13 08:09:34;;;;;;;22.00;9.60;;;;;;;29.15;43.15;99084.89;25075;1317;3026460;-58
2022/08/13 08:14:52;;;;;;;19.70;8.60;;;;;;;29.31;42.56;99081.80;25035;1317;3055655;-59
2022/08/13 08:17:26;;;;;;;16.20;7.90;;;;;;;29.37;42.77;99082.35;25027;1318;3026209;-59
2022/08/13 08:19:56;;;;;;;22.70;8.30;;;;;;;29.52;42.84;99085.56;25033;1318;3048647;-58
2022/08/13 08:22:26;;;;;;;21.80;8.60;;;;;;;29.64;42.56;99077.22;25043;1318;3027251;-61
2022/08/13 08:24:56;;;;;;;19.50;9.40;;;;;;;29.73;42.13;99077.42;25031;1318;3027426;-59
2022/08/13 08:27:25;;;;;;;19.00;9.00;;;;;;;29.83;42.53;99077.30;25048;1318;3026301;-59
2022/08/13 08:29:55;;;;;;;19.50;8.60;;;;;;;29.92;42.02;99074.67;25049;1317;3027179;-62
2022/08/13 08:32:24;;;;;;;21.60;8.90;;;;;;;30.02;42.18;99075.49;25038;1317;3027172;-61
2022/08/13 08:34:53;;;;;;;16.50;7.80;;;;;;;30.08;41.67;99072.70;24939;1317;3071139;-61
2022/08/13 08:43:02;;;;;;;12.40;6.70;;;;;;;30.35;40.58;99068.05;25057;1318;3054873;-60
2022/08/13 08:45:31;;;;;;;16.60;8.20;;;;;;;30.43;40.63;99062.05;25063;1318;3028118;-59
2022/08/13 08:48:01;;;;;;;16.00;7.60;;;;;;;30.48;40.23;99058.13;25076;1316;3026559;-59
2022/08/13 08:50:30;;;;;;;27.60;8.10;;;;;;;30.46;38.76;99062.19;25019;1316;3028393;-59
2022/08/13 08:53:19;;;;;;;30.40;8.40;;;;;;;30.47;38.50;99052.96;25085;1316;3027948;-61
2022/08/13 08:55:50;;;;;;;23.40;7.60;;;;;;;30.54;38.78;99047.05;25022;1318;3071747;-63
2022/08/13 08:58:20;;;;;;;17.30;7.90;;;;;;;30.57;38.35;99042.85;25040;1318;3026201;-58
2022/08/13 09:00:49;;;;;;;22.60;7.30;;;;;;;30.60;37.69;99039.13;25130;1318;3026789;-59
2022/08/13 09:03:19;;;;;;;23.60;8.00;;;;;;;30.69;37.65;99040.37;25036;1318;3026967;-61
2022/08/13 09:05:48;;;;;;;20.70;8.30;;;;;;;30.72;37.61;99037.90;25029;1316;3029765;-57
2022/08/13 09:08:18;;;;;;;18.20;7.90;;;;;;;30.83;38.03;99032.29;25070;1318;3026422;-59
2022/08/13 09:10:49;;;;;;;20.60;7.00;;;;;;;30.91;38.17;99032.56;25040;1318;3051524;-59
2022/08/13 09:13:19;;;;;;;18.70;7.10;;;;;;;31.05;38.34;99030.40;25007;1317;3026829;-59
2022/08/13 09:15:48;;;;;;;18.50;7.50;;;;;;;31.12;37.97;99026.98;25011;1316;3027538;-56
2022/08/13 09:18:17;;;;;;;21.40;7.90;;;;;;;31.18;37.79;99025.10;25069;1317;3026651;-60
2022/08/13 09:20:46;;;;;;;21.60;7.90;;;;;;;31.26;37.22;99020.15;25145;1318;3058855;-59
2022/08/13 09:23:16;;;;;;;20.80;8.00;;;;;;;31.34;37.11;99022.45;25022;1318;3027026;-60
2022/08/13 09:25:50;;;;;;;31.70;9.20;;;;;;;31.41;36.83;99018.52;25101;1316;3052201;-57
2022/08/13 09:28:23;;;;;;;22.00;8.10;;;;;;;31.52;36.62;99018.12;25043;1316;3055995;-60
2022/08/13 09:30:54;;;;;;;28.00;8.50;;;;;;;31.57;36.56;99011.55;24993;1318;3027327;-60
2022/08/13 09:33:24;;;;;;;28.50;8.60;;;;;;;31.69;35.78;99012.57;25108;1317;3026736;-58
2022/08/13 09:35:54;;;;;;;24.60;7.60;;;;;;;31.80;35.78;99006.80;25105;1317;3027055;-60
2022/08/13 09:38:23;;;;;;;29.40;9.10;;;;;;;31.77;34.98;99007.82;25087;1317;3026385;-59
2022/08/13 09:40:59;;;;;;;26.30;8.60;;;;;;;31.86;35.10;99004.20;25041;1318;3026486;-60
2022/08/13 09:43:35;;;;;;;20.50;7.90;;;;;;;32.00;35.33;99001.44;25011;1318;3051019;-62
2022/08/13 09:46:04;;;;;;;29.10;8.40;;;;;;;32.09;35.05;98992.75;25013;1317;3071573;-57
2022/08/13 09:48:34;;;;;;;27.20;7.60;;;;;;;32.08;33.19;98992.83;25019;1317;3027167;-61
2022/08/13 09:51:04;;;;;;;17.80;6.70;;;;;;;32.17;32.10;98993.65;25075;1318;3026896;-57
2022/08/13 09:53:34;;;;;;;21.70;6.90;;;;;;;32.26;31.96;98987.89;25079;1318;3026447;-62
2022/08/13 09:56:03;;;;;;;18.00;7.20;;;;;;;32.40;32.34;98986.27;25088;1318;3026520;-60
2022/08/13 09:58:33;;;;;;;22.10;7.30;;;;;;;32.49;32.06;98982.92;25060;1318;3026635;-57
2022/08/13 10:01:02;;;;;;;20.10;7.00;;;;;;;32.59;31.86;98978.98;25053;1318;3027954;-59
2022/08/13 10:03:33;;;;;;;21.60;6.60;;;;;;;32.72;31.62;98980.39;25004;1318;3058338;-57
2022/08/13 10:06:02;;;;;;;19.00;7.10;;;;;;;32.83;31.52;98979.06;25036;1317;3026508;-60
2022/08/13 10:08:33;;;;;;;20.60;7.20;;;;;;;32.86;31.28;98976.83;25033;1318;3026229;-59
2022/08/13 10:11:02;;;;;;;20.40;7.30;;;;;;;32.89;31.12;98974.36;25003;1318;3026788;-62
2022/08/13 10:13:32;;;;;;;29.30;7.70;;;;;;;32.97;31.33;98974.02;25067;1318;3027800;-59
2022/08/13 10:16:01;;;;;;;22.90;6.80;;;;;;;33.07;31.16;98974.37;25055;1319;3026920;-56
2022/08/13 10:18:31;;;;;;;23.50;7.70;;;;;;;33.16;31.86;98973.45;25060;1317;3026748;-58
2022/08/13 10:21:00;;;;;;;18.00;7.40;;;;;;;33.24;31.50;98966.76;25058;1316;3071010;-57
2022/08/13 10:23:29;;;;;;;18.00;7.10;;;;;;;33.41;31.86;98967.67;25076;1318;3026524;-58
2022/08/13 10:25:59;;;;;;;15.30;7.10;;;;;;;33.50;31.28;98971.25;25022;1318;3053954;-60
2022/08/13 10:28:31;;;;;;;23.70;7.00;;;;;;;33.54;30.67;98965.52;25020;1318;3026783;-60
2022/08/13 10:31:01;;;;;;;23.00;7.70;;;;;;;33.55;30.67;98963.52;25031;1318;3026862;-59
2022/08/13 10:33:33;;;;;;;18.30;8.10;;;;;;;33.63;30.73;98961.35;25099;1318;3026575;-58
2022/08/13 10:36:03;;;;;;;15.70;7.50;;;;;;;33.67;30.67;98960.80;25055;1318;3027177;-58
2022/08/13 10:38:33;;;;;;;28.30;8.10;;;;;;;33.67;30.27;98961.73;25036;1316;3026334;-58
2022/08/13 10:41:10;;;;;;;21.40;6.90;;;;;;;33.77;30.07;98961.35;25021;1317;3026632;-58
2022/08/13 10:43:39;;;;;;;20.10;6.80;;;;;;;33.87;30.20;98960.09;25075;1317;3055862;-60
2022/08/13 10:46:11;;;;;;;26.90;7.10;;;;;;;33.92;30.23;98963.28;25058;1318;3027190;-59
2022/08/13 10:48:40;;;;;;;17.20;7.30;;;;;;;33.99;30.39;98963.73;25143;1317;3026729;-59
2022/08/13 10:51:09;;;;;;;22.60;7.50;;;;;;;34.00;29.75;98959.88;25064;1316;3026920;-57
2022/08/13 10:54:00;;;;;;;24.90;7.30;;;;;;;34.07;30.21;98958.90;25056;1318;3050877;-59
2022/08/13 10:56:31;;;;;;;20.90;7.10;;;;;;;34.13;29.96;98955.40;25019;1317;3071506;-60
2022/08/13 10:59:01;;;;;;;19.10;7.00;;;;;;;34.21;29.30;98950.98;24944;1317;3027067;-58
2022/08/13 11:01:30;;;;;;;18.10;6.80;;;;;;;34.18;29.60;98956.41;25012;1316;3026975;-59
2022/08/13 11:04:01;;;;;;;22.70;6.70;;;;;;;34.12;29.69;98965.80;25085;1318;3027355;-58
2022/08/13 11:06:30;;;;;;;17.70;6.50;;;;;;;34.18;29.27;98958.86;25073;1317;3048452;-59
2022/08/13 11:09:00;;;;;;;29.00;7.30;;;;;;;34.22;28.90;98954.81;25031;1318;3027495;-60
2022/08/13 11:11:29;;;;;;;13.80;6.20;;;;;;;34.26;29.28;98957.52;24984;1317;3026976;-60
2022/08/13 11:13:59;;;;;;;15.60;6.00;;;;;;;34.34;29.31;98958.06;25134;1316;3026738;-61
2022/08/13 11:19:05;;;;;;;16.40;6.60;;;;;;;34.23;28.87;98961.36;25085;1316;3026945;-59
2022/08/13 11:21:35;;;;;;;21.80;6.40;;;;;;;34.26;28.86;98955.17;25032;1317;3057278;-64
2022/08/13 11:24:04;;;;;;;22.30;7.20;;;;;;;34.19;29.51;98958.55;25001;1317;3026363;-57
2022/08/13 11:26:33;;;;;;;16.20;6.70;;;;;;;34.15;29.95;98960.41;25023;1315;3054060;-60
2022/08/13 11:29:03;;;;;;;18.50;6.50;;;;;;;34.33;29.38;98954.02;24998;1317;3027196;-59
2022/08/13 11:31:32;;;;;;;23.60;6.70;;;;;;;34.46;29.20;98958.17;25065;1317;3051967;-57
2022/08/13 11:34:01;;;;;;;17.20;6.40;;;;;;;34.53;29.72;98947.25;25061;1318;3028367;-58
2022/08/13 11:36:30;;;;;;;16.10;6.50;;;;;;;34.52;29.52;98949.20;25025;1317;3050790;-57
2022/08/13 11:38:59;;;;;;;16.10;6.60;;;;;;;34.63;28.49;98950.47;24989;1317;3028232;-58
2022/08/13 11:41:28;;;;;;;19.50;6.50;;;;;;;34.64;28.19;98946.60;25057;1316;3026924;-59
2022/08/13 11:43:57;;;;;;;15.40;6.90;;;;;;;34.78;28.21;98939.20;25005;1317;3048647;-58
2022/08/13 11:46:27;;;;;;;13.80;7.10;;;;;;;34.87;28.18;98938.23;25088;1316;3027432;-59
2022/08/13 11:48:56;;;;;;;18.80;6.80;;;;;;;34.80;28.12;98939.32;24982;1316;3071113;-55